createdAt,value
2023-01-18T00:01:35.618Z,16.55
2023-01-18T00:04:04.360Z,18.65
2023-01-18T00:06:33.011Z,18.63
2023-01-18T00:09:01.807Z,17.48
2023-01-18T00:11:30.551Z,19.37
2023-01-18T00:14:02.749Z,19.70
2023-01-18T00:16:31.563Z,19.90
2023-01-18T00:19:01.191Z,20.43
2023-01-18T00:21:29.900Z,18.13
2023-01-18T00:23:58.696Z,19.52
2023-01-18T00:26:27.342Z,17.83
2023-01-18T00:28:57.915Z,19.17
2023-01-18T00:31:28.008Z,19.27
2023-01-18T00:33:56.579Z,16.65
2023-01-18T00:36:25.261Z,18.83
2023-01-18T00:38:54.456Z,19.10
2023-01-18T00:41:23.533Z,19.88
2023-01-18T00:43:51.750Z,18.55
2023-01-18T00:46:23.005Z,19.27
2023-01-18T00:48:54.568Z,23.10
2023-01-18T00:51:25.599Z,19.65
2023-01-18T00:53:54.221Z,18.73
2023-01-18T00:56:23.967Z,19.95
2023-01-18T01:01:21.006Z,20.05
2023-01-18T01:04:07.322Z,21.33
2023-01-18T01:06:47.509Z,19.13
2023-01-18T01:09:19.152Z,20.90
2023-01-18T01:12:02.210Z,19.92
2023-01-18T01:14:48.435Z,19.02
2023-01-18T01:17:35.261Z,20.27
2023-01-18T01:20:21.685Z,22.90
2023-01-18T01:23:10.187Z,23.00
2023-01-18T01:25:57.766Z,20.52
2023-01-18T01:28:27.613Z,22.15
2023-01-18T01:33:26.804Z,22.40
2023-01-18T01:35:58.294Z,21.27
2023-01-18T01:38:29.059Z,21.42
2023-01-18T01:40:59.325Z,22.40
2023-01-18T01:43:44.959Z,20.00
2023-01-18T01:46:24.898Z,21.08
2023-01-18T01:49:00.372Z,20.73
2023-01-18T01:51:29.644Z,20.58
2023-01-18T01:54:02.915Z,19.83
2023-01-18T01:56:32.787Z,18.17
2023-01-18T01:59:10.224Z,19.73
2023-01-18T02:01:40.383Z,19.45
2023-01-18T02:04:09.215Z,18.50
2023-01-18T02:06:39.960Z,19.52
2023-01-18T02:09:13.769Z,18.90
2023-01-18T02:11:44.547Z,19.70
2023-01-18T02:14:17.015Z,17.55
2023-01-18T02:17:00.943Z,18.27
2023-01-18T02:20:04.881Z,17.55
2023-01-18T02:22:46.441Z,17.60
2023-01-18T02:25:47.475Z,18.83
2023-01-18T02:28:19.584Z,17.25
2023-01-18T02:30:54.179Z,19.77
2023-01-18T02:33:29.637Z,17.73
2023-01-18T02:36:01.348Z,19.65
2023-01-18T02:38:38.748Z,18.52
2023-01-18T02:41:14.364Z,18.38
2023-01-18T02:44:03.716Z,18.85
2023-01-18T02:46:39.053Z,18.73
2023-01-18T02:49:09.976Z,16.90
2023-01-18T02:51:39.720Z,17.70
2023-01-18T02:54:10.505Z,18.02
2023-01-18T02:56:43.000Z,18.02
2023-01-18T02:59:17.049Z,20.30
2023-01-18T03:01:48.938Z,20.88
2023-01-18T03:04:23.004Z,19.85
2023-01-18T03:06:58.837Z,20.10
2023-01-18T03:09:29.136Z,19.17
2023-01-18T03:12:04.329Z,19.95
2023-01-18T03:14:47.709Z,20.08
2023-01-18T03:17:22.566Z,21.10
2023-01-18T03:20:06.646Z,18.52
2023-01-18T03:22:56.624Z,21.73
2023-01-18T03:25:30.360Z,20.27
2023-01-18T03:28:24.002Z,20.15
2023-01-18T03:31:16.250Z,18.20
2023-01-18T03:33:49.057Z,20.17
2023-01-18T03:36:27.834Z,21.92
2023-01-18T03:39:04.565Z,21.43
2023-01-18T03:44:13.333Z,21.95
2023-01-18T03:46:44.435Z,21.05
2023-01-18T03:49:13.868Z,19.48
2023-01-18T03:52:02.804Z,20.63
2023-01-18T03:54:37.136Z,21.77
2023-01-18T03:57:12.464Z,22.75
2023-01-18T03:59:41.723Z,20.70
2023-01-18T04:02:12.117Z,22.55
2023-01-18T04:04:41.031Z,21.65
2023-01-18T04:07:09.680Z,21.33
2023-01-18T04:09:38.352Z,19.00
2023-01-18T04:12:07.339Z,21.45
2023-01-18T04:14:35.969Z,22.30
2023-01-18T04:17:04.637Z,21.02
2023-01-18T04:19:36.976Z,21.85
2023-01-18T04:22:09.788Z,20.40
2023-01-18T04:24:38.940Z,21.75
2023-01-18T04:27:07.729Z,21.63
2023-01-18T04:29:36.661Z,21.07
2023-01-18T04:32:06.212Z,22.30
2023-01-18T04:34:36.302Z,20.00
2023-01-18T04:37:06.271Z,22.80
2023-01-18T04:39:35.103Z,22.13
2023-01-18T04:42:04.051Z,22.33
2023-01-18T04:44:32.726Z,22.63
2023-01-18T04:47:02.668Z,24.10
2023-01-18T04:49:31.292Z,23.55
2023-01-18T04:52:01.376Z,24.83
2023-01-18T04:54:30.653Z,25.48
2023-01-18T04:56:59.716Z,22.90
2023-01-18T04:59:29.713Z,24.02
2023-01-18T05:01:58.479Z,21.55
2023-01-18T05:04:27.169Z,22.00
2023-01-18T05:06:57.005Z,23.95
2023-01-18T05:11:55.664Z,23.92
2023-01-18T05:14:24.474Z,24.30
2023-01-18T05:16:53.190Z,24.60
2023-01-18T05:19:22.338Z,24.47
2023-01-18T05:21:50.998Z,24.30
2023-01-18T05:24:19.850Z,24.88
2023-01-18T05:26:52.006Z,23.77
2023-01-18T05:29:20.785Z,23.83
2023-01-18T05:31:49.518Z,24.20
2023-01-18T05:34:18.279Z,24.70
2023-01-18T05:36:48.088Z,23.92
2023-01-18T05:39:16.976Z,23.13
2023-01-18T05:41:45.643Z,23.80
2023-01-18T05:44:15.733Z,23.77
2023-01-18T05:46:44.376Z,22.73
2023-01-18T05:49:13.097Z,24.30
2023-01-18T05:51:41.782Z,24.75
2023-01-18T05:54:10.446Z,25.02
2023-01-18T05:56:39.309Z,24.42
2023-01-18T05:59:08.090Z,24.83
2023-01-18T06:01:38.203Z,24.27
2023-01-18T06:04:07.660Z,24.42
2023-01-18T06:06:36.527Z,24.33
2023-01-18T06:09:05.452Z,25.03
2023-01-18T06:11:34.123Z,25.27
2023-01-18T06:14:02.791Z,23.38
2023-01-18T06:16:31.595Z,24.70
2023-01-18T06:19:01.774Z,23.97
2023-01-18T06:21:30.557Z,22.17
2023-01-18T06:23:59.183Z,22.63
2023-01-18T06:26:27.801Z,24.77
2023-01-18T06:28:56.446Z,23.63
2023-01-18T06:31:25.626Z,25.70
2023-01-18T06:33:54.599Z,24.52
2023-01-18T06:36:24.813Z,25.30
2023-01-18T06:38:53.739Z,23.45
2023-01-18T06:41:22.405Z,24.70
2023-01-18T06:43:52.036Z,23.70
2023-01-18T06:46:20.954Z,25.40
2023-01-18T06:48:49.797Z,23.55
2023-01-18T06:51:18.433Z,24.10
2023-01-18T06:53:51.273Z,23.45
2023-01-18T06:56:19.922Z,24.75
2023-01-18T06:58:49.740Z,26.15
2023-01-18T07:03:47.010Z,70.88
2023-01-18T07:06:15.962Z,29.53
2023-01-18T07:08:44.935Z,53.00
2023-01-18T07:11:15.696Z,102.40
2023-01-18T07:13:44.470Z,28.33
2023-01-18T07:16:18.247Z,28.73
2023-01-18T07:18:48.424Z,28.83
2023-01-18T07:21:19.398Z,24.63
2023-01-18T07:23:48.171Z,25.98
2023-01-18T07:26:18.859Z,27.38
2023-01-18T07:28:49.928Z,28.90
2023-01-18T07:31:20.681Z,31.75
2023-01-18T07:33:49.378Z,41.15
2023-01-18T07:36:18.483Z,30.98
2023-01-18T07:38:49.268Z,31.48
2023-01-18T07:41:19.532Z,30.92
2023-01-18T07:43:48.345Z,37.88
2023-01-18T07:46:20.882Z,40.27
2023-01-18T07:48:50.677Z,29.77
2023-01-18T07:53:48.023Z,25.02
2023-01-18T07:56:20.056Z,47.25
2023-01-18T07:58:48.840Z,28.23
2023-01-18T08:01:19.978Z,26.48
2023-01-18T08:03:50.108Z,25.73
2023-01-18T08:06:25.026Z,26.25
2023-01-18T08:08:56.106Z,28.17
2023-01-18T08:11:26.548Z,26.35
2023-01-18T08:13:56.396Z,24.90
2023-01-18T08:16:27.100Z,26.58
2023-01-18T08:18:55.747Z,26.38
2023-01-18T08:21:24.654Z,24.85
2023-01-18T08:23:54.830Z,26.07
2023-01-18T08:26:26.286Z,26.50
2023-01-18T08:28:56.467Z,22.92
2023-01-18T08:31:25.239Z,24.92
2023-01-18T08:33:54.251Z,26.60
2023-01-18T08:36:25.428Z,25.55
2023-01-18T08:38:56.927Z,22.75
2023-01-18T08:41:30.631Z,22.45
2023-01-18T08:44:00.517Z,24.10
2023-01-18T08:46:29.239Z,23.63
2023-01-18T08:48:59.228Z,23.88
2023-01-18T08:51:28.106Z,21.95
2023-01-18T08:53:57.333Z,23.67
2023-01-18T08:56:27.928Z,22.88
2023-01-18T08:58:57.929Z,23.77
2023-01-18T09:01:27.157Z,21.27
2023-01-18T09:03:58.282Z,21.60
2023-01-18T09:06:32.049Z,22.40
2023-01-18T09:09:01.704Z,21.25
2023-01-18T09:11:31.826Z,21.40
2023-01-18T09:14:02.280Z,21.63
2023-01-18T09:16:31.982Z,22.92
2023-01-18T09:19:01.635Z,24.35
2023-01-18T09:21:30.340Z,21.77
2023-01-18T09:23:59.837Z,20.73
2023-01-18T09:26:30.682Z,23.50
2023-01-18T09:29:01.064Z,21.05
2023-01-18T09:31:30.999Z,21.65
2023-01-18T09:34:18.986Z,20.23
2023-01-18T09:36:50.732Z,19.53
2023-01-18T09:39:19.658Z,22.17
2023-01-18T09:41:53.887Z,21.95
2023-01-18T09:44:30.073Z,22.80
2023-01-18T09:47:03.150Z,20.02
2023-01-18T09:49:38.568Z,18.70
2023-01-18T09:52:20.060Z,18.92
2023-01-18T09:54:55.816Z,20.02
2023-01-18T09:57:38.143Z,20.38
2023-01-18T10:00:21.801Z,22.30
2023-01-18T10:02:53.994Z,22.15
2023-01-18T10:05:26.502Z,23.50
2023-01-18T10:08:03.860Z,21.65
2023-01-18T10:10:40.303Z,20.92
2023-01-18T10:13:38.147Z,21.13
2023-01-18T10:16:15.653Z,20.83
2023-01-18T10:18:48.424Z,21.23
2023-01-18T10:21:23.660Z,19.85
2023-01-18T10:24:09.634Z,21.90
2023-01-18T10:26:40.750Z,22.65
2023-01-18T10:29:15.919Z,20.77
2023-01-18T10:31:57.294Z,21.98
2023-01-18T10:34:38.063Z,21.60
2023-01-18T10:37:14.609Z,21.02
2023-01-18T10:39:48.020Z,20.00
2023-01-18T10:42:23.151Z,19.73
2023-01-18T10:44:52.574Z,21.60
2023-01-18T10:47:23.199Z,19.17
2023-01-18T10:49:58.141Z,19.70
2023-01-18T10:52:28.979Z,19.23
2023-01-18T10:55:01.460Z,18.88
2023-01-18T10:57:33.362Z,18.73
2023-01-18T11:00:06.032Z,20.30
2023-01-18T11:02:38.556Z,20.17
2023-01-18T11:05:24.433Z,20.25
2023-01-18T11:08:15.248Z,18.60
2023-01-18T11:10:44.690Z,18.55
2023-01-18T11:13:27.080Z,18.50
2023-01-18T11:16:06.413Z,17.70
2023-01-18T11:18:36.690Z,18.20
2023-01-18T11:21:12.228Z,17.55
2023-01-18T11:23:43.819Z,18.27
2023-01-18T11:26:17.088Z,17.80
2023-01-18T11:28:51.468Z,18.13
2023-01-18T11:31:22.673Z,18.25
2023-01-18T11:33:55.303Z,18.13
2023-01-18T11:36:36.921Z,16.65
2023-01-18T11:39:28.152Z,17.27
2023-01-18T11:42:28.954Z,17.27
2023-01-18T11:45:15.289Z,17.35
2023-01-18T11:47:59.529Z,21.35
2023-01-18T11:50:35.643Z,16.92
2023-01-18T11:53:16.959Z,19.05
2023-01-18T11:55:56.175Z,18.30
2023-01-18T11:58:29.116Z,18.50
2023-01-18T12:01:24.765Z,17.77
2023-01-18T12:04:02.556Z,25.48
2023-01-18T12:06:45.947Z,23.73
2023-01-18T12:09:26.204Z,19.45
2023-01-18T12:12:18.609Z,17.80
2023-01-18T12:15:07.208Z,17.20
2023-01-18T12:18:11.739Z,17.30
2023-01-18T12:20:48.545Z,18.05
2023-01-18T12:23:48.382Z,20.52
2023-01-18T12:29:20.520Z,17.50
2023-01-18T12:32:00.304Z,16.75
2023-01-18T12:34:35.793Z,19.60
2023-01-18T12:37:39.010Z,19.10
2023-01-18T12:40:29.252Z,17.63
2023-01-18T12:43:06.317Z,17.65
2023-01-18T12:45:39.661Z,18.52
2023-01-18T12:48:17.393Z,17.83
2023-01-18T12:50:50.191Z,19.30
2023-01-18T12:53:25.237Z,19.67
2023-01-18T12:55:56.551Z,19.58
2023-01-18T12:58:27.769Z,22.42
2023-01-18T13:01:00.382Z,22.58
2023-01-18T13:03:36.934Z,23.15
2023-01-18T13:06:05.809Z,21.00
2023-01-18T13:08:44.583Z,23.30
2023-01-18T13:11:20.967Z,21.33
2023-01-18T13:13:54.203Z,20.25
2023-01-18T13:16:39.755Z,18.00
2023-01-18T13:19:13.164Z,20.40
2023-01-18T13:21:50.675Z,17.85
2023-01-18T13:24:30.984Z,16.13
2023-01-18T13:27:10.627Z,16.45
2023-01-18T13:29:40.323Z,17.08
2023-01-18T13:35:19.110Z,18.58
2023-01-18T13:37:53.741Z,16.27
2023-01-18T13:40:27.154Z,16.73
2023-01-18T13:42:57.388Z,16.08
2023-01-18T13:45:28.361Z,15.35
2023-01-18T13:48:00.633Z,14.20
2023-01-18T13:50:47.514Z,15.43
2023-01-18T13:53:48.987Z,17.35
2023-01-18T13:56:26.624Z,18.40
2023-01-18T13:59:02.175Z,20.88
2023-01-18T14:01:35.019Z,20.70
2023-01-18T14:04:11.019Z,28.52
2023-01-18T14:06:45.001Z,25.27
2023-01-18T14:09:18.416Z,30.95
2023-01-18T14:11:54.766Z,35.45
2023-01-18T14:14:31.525Z,34.15
2023-01-18T14:17:31.769Z,36.20
2023-01-18T14:20:44.116Z,43.03
2023-01-18T14:23:32.980Z,41.00
2023-01-18T14:26:15.368Z,47.28
2023-01-18T14:28:49.943Z,113.55
2023-01-18T14:31:24.686Z,121.05
2023-01-18T14:33:54.845Z,84.28
2023-01-18T14:36:25.957Z,77.55
2023-01-18T14:39:13.094Z,114.07
2023-01-18T14:41:43.585Z,92.93
2023-01-18T14:44:17.878Z,41.95
2023-01-18T14:46:52.478Z,75.38
2023-01-18T14:49:26.579Z,32.97
2023-01-18T14:51:55.816Z,38.50
2023-01-18T14:54:26.140Z,151.00
2023-01-18T14:57:02.815Z,28.17
2023-01-18T14:59:33.392Z,15.05
2023-01-18T15:02:12.690Z,16.75
2023-01-18T15:04:45.668Z,14.70
2023-01-18T15:07:20.151Z,13.63
2023-01-18T15:09:49.116Z,13.93
2023-01-18T15:12:22.553Z,20.35
2023-01-18T15:14:51.867Z,38.00
2023-01-18T15:17:24.815Z,16.58
2023-01-18T15:19:56.118Z,23.63
2023-01-18T15:22:30.694Z,16.67
2023-01-18T15:25:01.026Z,11.80
2023-01-18T15:27:32.481Z,9.73
2023-01-18T15:30:02.873Z,11.32
2023-01-18T15:32:34.232Z,12.45
2023-01-18T15:35:03.628Z,13.90
2023-01-18T15:37:36.886Z,12.55
2023-01-18T15:40:23.490Z,12.45
2023-01-18T15:43:04.364Z,16.92
2023-01-18T15:45:35.835Z,17.25
2023-01-18T15:48:10.949Z,15.02
2023-01-18T15:50:45.582Z,14.60
2023-01-18T15:53:19.956Z,13.57
2023-01-18T15:55:51.520Z,12.93
2023-01-18T15:58:30.446Z,13.40
2023-01-18T16:01:02.145Z,14.85
2023-01-18T16:03:39.226Z,12.40
2023-01-18T16:06:13.756Z,11.10
2023-01-18T16:08:59.754Z,9.63
2023-01-18T16:11:32.195Z,9.65
2023-01-18T16:14:02.531Z,9.88
2023-01-18T16:16:35.334Z,11.60
2023-01-18T16:19:11.691Z,12.95
2023-01-18T16:21:46.667Z,10.55
2023-01-18T16:24:28.712Z,11.90
2023-01-18T16:26:59.708Z,10.45
2023-01-18T16:29:29.705Z,9.90
2023-01-18T16:32:20.575Z,10.10
2023-01-18T16:34:50.754Z,10.63
2023-01-18T16:37:19.619Z,9.95
2023-01-18T16:39:49.108Z,11.20
2023-01-18T16:42:19.913Z,11.07
2023-01-18T16:44:50.666Z,11.50
2023-01-18T16:47:20.027Z,12.02
2023-01-18T16:49:50.393Z,9.77
2023-01-18T16:52:19.084Z,10.85
2023-01-18T16:54:47.941Z,21.88
2023-01-18T16:57:25.023Z,12.63
2023-01-18T16:59:53.912Z,12.85
2023-01-18T17:02:22.644Z,11.43
2023-01-18T17:04:52.764Z,15.00
2023-01-18T17:07:21.850Z,14.45
2023-01-18T17:09:52.525Z,15.32
2023-01-18T17:12:22.131Z,15.65
2023-01-18T17:14:51.355Z,13.20
2023-01-18T17:17:20.165Z,12.02
2023-01-18T17:19:51.664Z,10.77
2023-01-18T17:22:21.745Z,11.02
2023-01-18T17:24:53.689Z,12.60
2023-01-18T17:27:22.305Z,15.75
2023-01-18T17:29:51.363Z,15.93
2023-01-18T17:32:19.985Z,16.23
2023-01-18T17:34:48.664Z,18.50
2023-01-18T17:37:17.452Z,17.85
2023-01-18T17:40:02.368Z,15.63
2023-01-18T17:42:32.005Z,18.95
2023-01-18T17:45:09.998Z,16.10
2023-01-18T17:47:39.237Z,16.80
2023-01-18T17:50:09.339Z,17.65
2023-01-18T17:52:38.040Z,18.00
2023-01-18T17:55:11.644Z,14.38
2023-01-18T17:57:40.903Z,14.98
2023-01-18T18:00:13.671Z,16.83
2023-01-18T18:02:42.916Z,14.40
2023-01-18T18:05:11.775Z,12.48
2023-01-18T18:07:40.402Z,11.43
2023-01-18T18:10:12.242Z,13.15
2023-01-18T18:12:41.024Z,9.98
2023-01-18T18:15:10.061Z,8.68
2023-01-18T18:17:38.933Z,11.50
2023-01-18T18:20:10.877Z,10.87
2023-01-18T18:22:39.874Z,9.02
2023-01-18T18:25:10.668Z,7.78
2023-01-18T18:27:47.466Z,8.30
2023-01-18T18:30:17.692Z,9.65
2023-01-18T18:32:47.452Z,9.43
2023-01-18T18:37:57.254Z,10.40
2023-01-18T18:40:29.493Z,7.68
2023-01-18T18:43:02.449Z,11.57
2023-01-18T18:45:32.683Z,6.97
2023-01-18T18:48:01.700Z,7.00
2023-01-18T18:50:30.800Z,7.07
2023-01-18T18:53:00.254Z,5.10
2023-01-18T19:00:28.253Z,4.15
2023-01-18T19:03:02.018Z,5.72
2023-01-18T19:05:32.049Z,4.20
2023-01-18T19:08:01.117Z,4.53
2023-01-18T19:10:31.557Z,4.20
2023-01-18T19:13:02.377Z,3.15
2023-01-18T19:15:31.295Z,3.80
2023-01-18T19:17:59.972Z,3.20
2023-01-18T19:20:28.592Z,3.85
2023-01-18T19:22:58.480Z,4.23
2023-01-18T19:27:57.220Z,3.08
2023-01-18T19:30:25.856Z,4.57
2023-01-18T19:32:54.707Z,3.10
2023-01-18T19:35:26.180Z,1.90
2023-01-18T19:37:56.510Z,6.95
2023-01-18T19:40:25.102Z,2.55
2023-01-18T19:42:59.822Z,7.80
2023-01-18T19:45:31.471Z,2.75
2023-01-18T19:48:02.054Z,4.32
2023-01-18T19:50:31.308Z,3.90
2023-01-18T19:53:00.342Z,3.90
2023-01-18T19:55:29.120Z,3.40
2023-01-18T19:58:00.840Z,3.90
2023-01-18T20:00:31.725Z,3.05
2023-01-18T20:03:01.314Z,3.58
2023-01-18T20:05:30.155Z,3.60
2023-01-18T20:07:58.689Z,2.30
2023-01-18T20:10:27.592Z,4.63
2023-01-18T20:12:56.466Z,3.50
2023-01-18T20:15:25.129Z,3.43
2023-01-18T20:17:55.333Z,3.83
2023-01-18T20:20:31.722Z,5.35
2023-01-18T20:23:04.015Z,4.22
2023-01-18T20:25:33.928Z,3.47
2023-01-18T20:28:02.798Z,4.32
2023-01-18T20:30:31.541Z,2.10
2023-01-18T20:33:01.960Z,2.17
2023-01-18T20:35:30.737Z,1.90
2023-01-18T20:37:59.355Z,1.75
2023-01-18T20:40:28.129Z,2.97
2023-01-18T20:42:56.808Z,3.50
2023-01-18T20:45:25.386Z,1.80
2023-01-18T20:47:54.113Z,1.73
2023-01-18T20:50:24.425Z,2.28
2023-01-18T20:52:54.387Z,4.80
2023-01-18T20:55:23.327Z,3.22
2023-01-18T20:57:52.155Z,4.28
2023-01-18T21:00:21.853Z,6.38
2023-01-18T21:05:19.397Z,2.00
2023-01-18T21:07:49.589Z,2.87
2023-01-18T21:10:18.753Z,2.50
2023-01-18T21:12:49.049Z,3.45
2023-01-18T21:15:17.912Z,2.60
2023-01-18T21:17:46.540Z,5.60
2023-01-18T21:20:15.376Z,2.38
2023-01-18T21:22:43.957Z,4.17
2023-01-18T21:25:14.143Z,2.28
2023-01-18T21:27:44.156Z,1.88
2023-01-18T21:30:14.068Z,1.60
2023-01-18T21:32:42.807Z,1.45
2023-01-18T21:35:11.857Z,1.60
2023-01-18T21:37:40.432Z,10.48
2023-01-18T21:40:10.507Z,5.43
2023-01-18T21:42:59.466Z,2.80
2023-01-18T21:45:44.681Z,2.63
2023-01-18T21:48:13.289Z,2.33
2023-01-18T21:51:01.026Z,2.58
2023-01-18T21:54:01.521Z,2.15
2023-01-18T21:56:30.134Z,1.85
2023-01-18T21:59:01.124Z,1.38
2023-01-18T22:01:34.357Z,2.10
2023-01-18T22:04:21.851Z,2.60
2023-01-18T22:06:51.161Z,1.65
2023-01-18T22:09:19.881Z,1.80
2023-01-18T22:11:48.681Z,3.42
2023-01-18T22:14:18.766Z,6.70
2023-01-18T22:16:47.367Z,2.70
2023-01-18T22:19:16.765Z,3.75
2023-01-18T22:21:45.307Z,1.98
2023-01-18T22:24:14.638Z,2.15
2023-01-18T22:26:43.461Z,2.70
2023-01-18T22:29:13.502Z,3.77
2023-01-18T22:31:43.527Z,1.65
2023-01-18T22:34:18.842Z,1.70
2023-01-18T22:36:47.420Z,1.40
2023-01-18T22:39:16.334Z,1.70
2023-01-18T22:41:45.105Z,1.80
2023-01-18T22:44:17.953Z,1.73
2023-01-18T22:46:47.924Z,2.20
2023-01-18T22:49:16.407Z,1.75
2023-01-18T22:51:45.015Z,1.00
2023-01-18T22:54:13.497Z,1.20
2023-01-18T22:56:42.120Z,1.10
2023-01-18T22:59:10.613Z,1.00
2023-01-18T23:01:39.100Z,0.70
2023-01-18T23:04:09.967Z,0.80
2023-01-18T23:06:45.887Z,0.70
2023-01-18T23:09:15.351Z,1.00
2023-01-18T23:11:44.768Z,1.05
2023-01-18T23:14:30.736Z,0.82
2023-01-18T23:17:16.925Z,0.80
2023-01-18T23:19:47.457Z,1.45
2023-01-18T23:22:15.961Z,1.00
2023-01-18T23:24:44.426Z,0.77
2023-01-18T23:27:13.004Z,0.70
2023-01-18T23:29:41.879Z,1.75
2023-01-18T23:32:10.429Z,1.00
2023-01-18T23:34:39.172Z,1.35
2023-01-18T23:37:09.423Z,0.88
2023-01-18T23:39:56.785Z,0.98
2023-01-18T23:42:42.644Z,1.30
2023-01-18T23:45:29.734Z,1.52
2023-01-18T23:48:15.857Z,1.10
2023-01-18T23:51:01.716Z,0.90
2023-01-18T23:53:49.016Z,1.05
2023-01-18T23:56:18.792Z,1.48
2023-01-18T23:58:47.295Z,0.90
